createdAt,value
2019-01-18T00:02:22.714Z,0.50
2019-01-18T00:04:50.792Z,0.50
2019-01-18T00:07:18.732Z,0.30
2019-01-18T00:09:46.728Z,0.30
2019-01-18T00:12:14.755Z,0.20
2019-01-18T00:14:43.041Z,0.30
2019-01-18T00:17:10.912Z,0.30
2019-01-18T00:19:38.816Z,0.40
2019-01-18T00:22:06.899Z,0.50
2019-01-18T00:24:35.412Z,0.50
2019-01-18T00:27:03.615Z,0.50
2019-01-18T00:29:31.605Z,0.50
2019-01-18T00:31:59.558Z,0.70
2019-01-18T00:34:27.776Z,0.70
2019-01-18T00:36:55.848Z,0.70
2019-01-18T00:39:23.827Z,0.70
2019-01-18T00:41:51.989Z,0.70
2019-01-18T00:44:20.147Z,0.70
2019-01-18T00:46:48.344Z,0.70
2019-01-18T00:49:16.232Z,0.70
2019-01-18T00:51:44.108Z,0.70
2019-01-18T00:54:12.030Z,0.80
2019-01-18T00:56:39.888Z,0.80
2019-01-18T00:59:08.092Z,0.80
2019-01-18T01:01:35.992Z,0.80
2019-01-18T01:04:04.266Z,0.80
2019-01-18T01:06:32.124Z,0.80
2019-01-18T01:09:00.370Z,0.70
2019-01-18T01:11:28.387Z,0.70
2019-01-18T01:13:56.347Z,0.80
2019-01-18T01:16:24.220Z,0.90
2019-01-18T01:18:52.396Z,1.00
2019-01-18T01:21:20.268Z,1.10
2019-01-18T01:23:48.196Z,1.10
2019-01-18T01:26:16.135Z,1.10
2019-01-18T01:28:44.292Z,1.10
2019-01-18T01:31:12.197Z,1.10
2019-01-18T01:33:40.120Z,1.00
2019-01-18T01:36:08.100Z,1.00
2019-01-18T01:38:36.064Z,1.10
2019-01-18T01:41:04.124Z,1.10
2019-01-18T01:43:32.125Z,1.20
2019-01-18T01:46:00.027Z,1.20
2019-01-18T01:48:29.110Z,1.30
2019-01-18T01:50:57.457Z,1.30
2019-01-18T01:53:25.478Z,1.30
2019-01-18T01:55:54.005Z,1.30
2019-01-18T01:58:22.168Z,1.30
2019-01-18T02:00:50.357Z,1.30
2019-01-18T02:03:18.244Z,1.30
2019-01-18T02:05:46.637Z,1.30
2019-01-18T02:08:14.621Z,1.30
2019-01-18T02:10:43.109Z,1.30
2019-01-18T02:13:11.142Z,1.20
2019-01-18T02:15:39.131Z,1.30
2019-01-18T02:18:07.332Z,1.40
2019-01-18T02:20:35.216Z,1.40
2019-01-18T02:23:03.156Z,1.40
2019-01-18T02:25:32.432Z,1.30
2019-01-18T02:28:00.324Z,1.30
2019-01-18T02:30:28.862Z,1.20
2019-01-18T02:32:56.843Z,1.10
2019-01-18T02:35:24.986Z,1.00
2019-01-18T02:37:52.940Z,0.90
2019-01-18T02:40:21.200Z,0.80
2019-01-18T02:42:49.165Z,0.60
2019-01-18T02:45:17.934Z,0.40
2019-01-18T02:47:45.893Z,0.40
2019-01-18T02:50:14.160Z,0.30
2019-01-18T02:52:42.096Z,0.20
2019-01-18T02:55:10.151Z,0.20
2019-01-18T02:57:38.117Z,0.20
2019-01-18T03:00:07.913Z,0.10
2019-01-18T03:02:35.843Z,0.10
2019-01-18T03:05:04.915Z,0.10
2019-01-18T03:07:32.775Z,0.10
2019-01-18T03:10:00.668Z,0.10
2019-01-18T03:12:28.855Z,0.10
2019-01-18T03:14:56.761Z,0.00
2019-01-18T03:17:24.647Z,0.00
2019-01-18T03:19:52.537Z,0.00
2019-01-18T03:22:20.704Z,0.00
2019-01-18T03:24:48.916Z,0.10
2019-01-18T03:27:17.080Z,0.20
2019-01-18T03:29:45.037Z,0.30
2019-01-18T03:32:12.973Z,0.40
2019-01-18T03:34:40.871Z,0.50
2019-01-18T03:37:09.148Z,0.50
2019-01-18T03:39:37.000Z,0.50
2019-01-18T03:42:04.967Z,0.50
2019-01-18T03:44:32.951Z,0.50
2019-01-18T03:47:00.827Z,0.40
2019-01-18T03:49:28.984Z,0.50
2019-01-18T03:51:56.868Z,0.50
2019-01-18T03:54:25.204Z,0.50
2019-01-18T03:56:53.120Z,0.60
2019-01-18T03:59:21.059Z,0.60
2019-01-18T04:01:48.952Z,0.60
2019-01-18T04:04:16.843Z,0.70
2019-01-18T04:06:44.749Z,0.70
2019-01-18T04:09:12.678Z,0.70
2019-01-18T04:11:40.575Z,0.60
2019-01-18T04:14:08.619Z,0.60
2019-01-18T04:16:36.693Z,0.50
2019-01-18T04:19:04.588Z,0.40
2019-01-18T04:21:32.756Z,0.30
2019-01-18T04:24:00.651Z,0.30
2019-01-18T04:26:28.531Z,0.20
2019-01-18T04:28:56.401Z,0.10
2019-01-18T04:31:24.292Z,0.20
2019-01-18T04:33:52.170Z,0.20
2019-01-18T04:36:20.366Z,0.30
2019-01-18T04:38:48.599Z,0.30
2019-01-18T04:41:16.564Z,0.40
2019-01-18T04:43:44.436Z,0.50
2019-01-18T04:46:12.400Z,0.50
2019-01-18T04:48:43.637Z,0.60
2019-01-18T04:51:11.526Z,0.60
2019-01-18T04:53:39.599Z,0.60
2019-01-18T04:56:07.805Z,0.70
2019-01-18T04:58:35.857Z,0.70
2019-01-18T05:01:03.817Z,0.70
2019-01-18T05:03:31.705Z,0.80
2019-01-18T05:05:59.833Z,0.80
2019-01-18T05:08:27.729Z,0.90
2019-01-18T05:10:55.624Z,0.90
2019-01-18T05:13:23.649Z,0.90
2019-01-18T05:15:51.513Z,0.90
2019-01-18T05:18:19.413Z,0.90
2019-01-18T05:20:47.542Z,0.90
2019-01-18T05:23:15.544Z,0.90
2019-01-18T05:25:43.425Z,0.90
2019-01-18T05:28:11.424Z,0.80
2019-01-18T05:30:39.604Z,0.80
2019-01-18T05:33:07.611Z,0.70
2019-01-18T05:35:35.780Z,0.70
2019-01-18T05:38:03.757Z,0.70
2019-01-18T05:40:31.621Z,0.70
2019-01-18T05:42:59.549Z,0.60
2019-01-18T05:45:27.522Z,0.60
2019-01-18T05:47:55.493Z,0.50
2019-01-18T05:50:24.401Z,0.50
2019-01-18T05:52:56.380Z,0.50
2019-01-18T05:55:24.316Z,0.50
2019-01-18T05:57:52.197Z,0.60
2019-01-18T06:00:33.060Z,0.50
2019-01-18T06:03:01.148Z,0.60
2019-01-18T06:05:30.109Z,0.60
2019-01-18T06:07:58.490Z,0.70
2019-01-18T06:10:26.453Z,0.60
2019-01-18T06:12:54.509Z,0.60
2019-01-18T06:15:22.563Z,0.50
2019-01-18T06:17:50.453Z,0.40
2019-01-18T06:20:18.402Z,0.40
2019-01-18T06:22:46.620Z,0.40
2019-01-18T06:25:14.624Z,0.40
2019-01-18T06:27:42.651Z,0.30
2019-01-18T06:30:12.428Z,0.20
2019-01-18T06:32:40.379Z,0.10
2019-01-18T06:35:08.436Z,0.00
2019-01-18T06:37:36.306Z,-0.10
2019-01-18T06:40:05.083Z,-0.20
2019-01-18T06:42:33.060Z,-0.30
2019-01-18T06:45:01.251Z,-0.30
2019-01-18T06:47:29.416Z,-0.30
2019-01-18T06:49:57.285Z,-0.30
2019-01-18T06:52:25.488Z,-0.40
2019-01-18T06:54:53.553Z,-0.50
2019-01-18T06:57:21.683Z,-0.40
2019-01-18T06:59:49.568Z,-0.40
2019-01-18T07:02:17.432Z,-0.30
2019-01-18T07:04:45.328Z,-0.30
2019-01-18T07:07:13.480Z,-0.20
2019-01-18T07:09:41.430Z,-0.20
2019-01-18T07:12:09.591Z,-0.20
2019-01-18T07:14:37.737Z,-0.20
2019-01-18T07:17:05.621Z,-0.10
2019-01-18T07:19:33.499Z,-0.10
2019-01-18T07:22:01.384Z,-0.10
2019-01-18T07:24:29.597Z,-0.10
2019-01-18T07:26:57.820Z,-0.10
2019-01-18T07:29:25.692Z,-0.10
2019-01-18T07:31:54.170Z,-0.10
2019-01-18T07:34:22.291Z,-0.10
2019-01-18T07:36:50.181Z,-0.20
2019-01-18T07:39:22.346Z,-0.20
2019-01-18T07:41:47.988Z,-0.30
2019-01-18T07:44:15.868Z,-0.30
2019-01-18T07:46:44.017Z,-0.40
2019-01-18T07:49:12.109Z,-0.40
2019-01-18T07:51:40.194Z,-0.40
2019-01-18T07:54:08.064Z,-0.40
2019-01-18T07:56:36.585Z,-0.40
2019-01-18T07:59:04.552Z,-0.30
2019-01-18T08:01:32.425Z,-0.20
2019-01-18T08:04:00.600Z,-0.10
2019-01-18T08:06:28.725Z,0.10
2019-01-18T08:08:56.713Z,0.20
2019-01-18T08:11:24.589Z,0.30
2019-01-18T08:13:52.741Z,0.50
2019-01-18T08:16:20.644Z,0.60
2019-01-18T08:18:48.540Z,0.70
2019-01-18T08:21:16.524Z,0.70
2019-01-18T08:23:45.682Z,0.70
2019-01-18T08:26:13.664Z,0.80
2019-01-18T08:28:41.733Z,0.90
2019-01-18T08:31:09.883Z,0.90
2019-01-18T08:33:38.138Z,1.00
2019-01-18T08:36:06.334Z,1.20
2019-01-18T08:38:34.524Z,1.30
2019-01-18T08:41:02.652Z,1.50
2019-01-18T08:43:30.525Z,1.60
2019-01-18T08:46:02.336Z,1.80
2019-01-18T08:48:30.228Z,1.90
2019-01-18T08:50:58.112Z,2.30
2019-01-18T08:53:26.329Z,2.60
2019-01-18T08:55:54.288Z,2.80
2019-01-18T08:58:22.521Z,2.90
2019-01-18T09:00:50.855Z,2.90
2019-01-18T09:03:18.741Z,2.80
2019-01-18T09:05:46.599Z,2.80
2019-01-18T09:08:14.512Z,2.80
2019-01-18T09:10:42.548Z,2.80
2019-01-18T09:13:10.680Z,2.70
2019-01-18T09:15:38.583Z,2.80
2019-01-18T09:18:06.623Z,2.80
2019-01-18T09:20:34.590Z,2.90
2019-01-18T09:23:02.612Z,3.00
2019-01-18T09:25:30.496Z,3.00
2019-01-18T09:27:58.750Z,3.10
2019-01-18T09:30:28.321Z,3.10
2019-01-18T09:32:56.273Z,3.10
2019-01-18T09:35:24.613Z,3.10
2019-01-18T09:37:52.696Z,3.10
2019-01-18T09:40:21.860Z,3.10
2019-01-18T09:42:49.741Z,3.00
2019-01-18T09:45:17.680Z,2.90
2019-01-18T09:47:45.580Z,2.90
2019-01-18T09:50:17.208Z,2.80
2019-01-18T09:52:45.270Z,2.70
2019-01-18T09:55:13.237Z,2.70
2019-01-18T09:57:41.273Z,2.70
2019-01-18T10:00:14.176Z,2.80
2019-01-18T10:02:42.171Z,2.70
2019-01-18T10:05:10.438Z,2.80
2019-01-18T10:07:38.660Z,2.80
2019-01-18T10:10:07.617Z,2.80
2019-01-18T10:12:35.499Z,3.00
2019-01-18T10:15:03.465Z,3.10
2019-01-18T10:17:31.419Z,3.30
2019-01-18T10:19:59.293Z,3.50
2019-01-18T10:22:27.250Z,3.60
2019-01-18T10:24:55.207Z,3.70
2019-01-18T10:27:23.990Z,3.80
2019-01-18T10:29:51.987Z,3.90
2019-01-18T10:32:19.900Z,4.10
2019-01-18T10:34:47.949Z,4.20
2019-01-18T10:37:15.860Z,4.40
2019-01-18T10:39:43.891Z,4.50
2019-01-18T10:42:12.105Z,4.60
2019-01-18T10:44:39.974Z,4.60
2019-01-18T10:47:08.032Z,4.50
2019-01-18T10:49:35.898Z,4.40
2019-01-18T10:52:03.924Z,4.30
2019-01-18T10:54:31.883Z,4.30
2019-01-18T10:57:00.057Z,4.20
2019-01-18T10:59:27.924Z,4.20
2019-01-18T11:02:00.655Z,4.20
2019-01-18T11:04:25.492Z,4.20
2019-01-18T11:06:53.436Z,4.10
2019-01-18T11:09:21.707Z,4.10
2019-01-18T11:11:49.812Z,4.00
2019-01-18T11:14:17.682Z,4.00
2019-01-18T11:16:45.566Z,4.00
2019-01-18T11:19:13.745Z,4.00
2019-01-18T11:21:41.970Z,3.90
2019-01-18T11:24:09.904Z,3.80
2019-01-18T11:26:38.008Z,3.70
2019-01-18T11:29:05.975Z,3.60
2019-01-18T11:31:34.048Z,3.70
2019-01-18T11:34:02.249Z,3.70
2019-01-18T11:36:30.577Z,3.70
2019-01-18T11:38:58.647Z,3.70
2019-01-18T11:41:26.627Z,3.80
2019-01-18T11:43:54.503Z,3.70
2019-01-18T11:46:22.631Z,3.70
2019-01-18T11:48:50.545Z,3.80
2019-01-18T11:51:18.557Z,4.00
2019-01-18T11:53:46.551Z,4.10
2019-01-18T11:56:14.836Z,4.20
2019-01-18T11:58:42.807Z,4.40
2019-01-18T12:01:10.755Z,4.70
2019-01-18T12:03:38.618Z,4.90
2019-01-18T12:06:06.616Z,5.00
2019-01-18T12:08:34.656Z,5.00
2019-01-18T12:11:02.995Z,5.00
2019-01-18T12:13:30.921Z,5.00
2019-01-18T12:15:58.994Z,5.30
2019-01-18T12:18:27.140Z,5.50
2019-01-18T12:20:55.029Z,5.70
2019-01-18T12:23:22.909Z,5.80
2019-01-18T12:25:50.880Z,5.90
2019-01-18T12:28:19.041Z,6.00
2019-01-18T12:30:46.925Z,6.00
2019-01-18T12:33:14.799Z,6.00
2019-01-18T12:35:42.665Z,6.10
2019-01-18T12:38:10.589Z,6.10
2019-01-18T12:40:38.560Z,6.10
2019-01-18T12:43:06.432Z,6.10
2019-01-18T12:45:34.499Z,6.00
2019-01-18T12:48:02.568Z,5.80
2019-01-18T12:50:31.524Z,5.70
2019-01-18T12:52:59.464Z,5.70
2019-01-18T12:55:27.521Z,5.60
2019-01-18T12:57:56.168Z,5.50
2019-01-18T13:00:24.407Z,5.40
2019-01-18T13:02:52.512Z,5.50
2019-01-18T13:05:21.605Z,5.40
2019-01-18T13:07:49.927Z,5.30
2019-01-18T13:10:17.785Z,5.30
2019-01-18T13:12:45.894Z,5.20
2019-01-18T13:15:15.832Z,5.10
2019-01-18T13:17:44.537Z,5.00
2019-01-18T13:20:12.564Z,4.90
2019-01-18T13:22:40.618Z,4.90
2019-01-18T13:25:09.870Z,4.90
2019-01-18T13:27:37.936Z,5.00
2019-01-18T13:30:07.706Z,5.10
2019-01-18T13:32:41.573Z,5.10
2019-01-18T13:35:05.825Z,5.10
2019-01-18T13:37:33.802Z,5.20
2019-01-18T13:40:06.164Z,5.20
2019-01-18T13:42:31.393Z,5.30
2019-01-18T13:44:59.356Z,5.30
2019-01-18T13:47:27.331Z,5.30
2019-01-18T13:49:55.263Z,5.30
2019-01-18T13:52:23.494Z,5.20
2019-01-18T13:54:51.572Z,5.10
2019-01-18T13:57:19.560Z,5.00
2019-01-18T13:59:48.064Z,5.00
2019-01-18T14:02:16.061Z,4.90
2019-01-18T14:04:43.942Z,4.90
2019-01-18T14:07:12.460Z,4.90
2019-01-18T14:09:40.421Z,4.90
2019-01-18T14:12:08.280Z,4.80
2019-01-18T14:14:36.440Z,4.80
2019-01-18T14:17:04.734Z,4.70
2019-01-18T14:19:32.626Z,4.60
2019-01-18T14:22:00.512Z,4.50
2019-01-18T14:24:28.436Z,4.50
2019-01-18T14:26:56.656Z,4.40
2019-01-18T14:29:24.639Z,4.30
2019-01-18T14:31:52.509Z,4.20
2019-01-18T14:34:38.178Z,4.20
2019-01-18T14:37:06.160Z,4.20
2019-01-18T14:39:34.068Z,4.10
2019-01-18T14:42:02.574Z,4.10
2019-01-18T14:44:30.542Z,4.10
2019-01-18T14:46:58.481Z,4.10
2019-01-18T14:49:26.663Z,4.10
2019-01-18T14:51:54.885Z,4.00
2019-01-18T14:54:22.753Z,4.00
2019-01-18T14:56:50.651Z,3.90
2019-01-18T14:59:18.520Z,3.80
2019-01-18T15:01:46.460Z,3.70
2019-01-18T15:04:14.378Z,3.50
2019-01-18T15:06:42.253Z,3.30
2019-01-18T15:09:10.776Z,3.10
2019-01-18T15:11:38.643Z,2.90
2019-01-18T15:14:06.509Z,2.70
2019-01-18T15:16:34.469Z,2.40
2019-01-18T15:19:02.440Z,2.30
2019-01-18T15:21:30.304Z,2.10
2019-01-18T15:23:58.420Z,2.00
2019-01-18T15:26:26.393Z,1.80
2019-01-18T15:28:54.400Z,1.70
2019-01-18T15:31:22.319Z,1.60
2019-01-18T15:33:50.190Z,1.40
2019-01-18T15:36:18.137Z,1.30
2019-01-18T15:38:46.140Z,1.20
2019-01-18T15:41:14.421Z,1.10
2019-01-18T15:43:42.287Z,1.00
2019-01-18T15:46:10.271Z,1.00
2019-01-18T15:48:38.244Z,0.90
2019-01-18T15:51:06.220Z,0.90
2019-01-18T15:53:34.092Z,0.80
2019-01-18T15:56:02.337Z,0.60
2019-01-18T15:58:30.216Z,0.50
2019-01-18T16:00:58.085Z,0.50
2019-01-18T16:03:26.089Z,0.40
2019-01-18T16:05:54.249Z,0.30
2019-01-18T16:08:22.108Z,0.30
2019-01-18T16:10:50.016Z,0.30
2019-01-18T16:13:17.881Z,0.20
2019-01-18T16:15:48.102Z,0.20
2019-01-18T16:18:16.661Z,0.20
2019-01-18T16:20:44.600Z,0.30
2019-01-18T16:23:13.053Z,0.30
2019-01-18T16:25:40.930Z,0.30
2019-01-18T16:28:09.192Z,0.40
2019-01-18T16:30:37.117Z,0.40
2019-01-18T16:33:05.773Z,0.30
2019-01-18T16:35:34.016Z,0.30
2019-01-18T16:38:02.056Z,0.30
2019-01-18T16:40:31.116Z,0.20
2019-01-18T16:43:00.849Z,0.20
2019-01-18T16:45:28.757Z,0.30
2019-01-18T16:47:56.895Z,0.20
2019-01-18T16:50:24.848Z,0.10
2019-01-18T16:52:52.723Z,0.00
2019-01-18T16:55:20.623Z,0.00
2019-01-18T16:57:48.492Z,0.00
2019-01-18T17:00:21.132Z,-0.10
2019-01-18T17:02:49.332Z,-0.10
2019-01-18T17:05:17.636Z,-0.10
2019-01-18T17:07:45.581Z,-0.10
2019-01-18T17:10:14.116Z,-0.20
2019-01-18T17:12:42.056Z,-0.20
2019-01-18T17:15:10.346Z,-0.30
2019-01-18T17:17:38.217Z,-0.30
2019-01-18T17:20:08.836Z,-0.30
2019-01-18T17:22:36.788Z,-0.40
2019-01-18T17:25:05.158Z,-0.30
2019-01-18T17:27:33.021Z,-0.40
2019-01-18T17:30:00.953Z,-0.50
2019-01-18T17:32:28.833Z,-0.50
2019-01-18T17:34:57.009Z,-0.50
2019-01-18T17:37:30.040Z,-0.50
2019-01-18T17:40:18.566Z,-0.50
2019-01-18T17:42:52.644Z,-0.50
2019-01-18T17:45:46.100Z,-0.50
2019-01-18T17:48:39.473Z,-0.50
2019-01-18T17:51:25.311Z,-0.50
2019-01-18T17:54:05.440Z,-0.50
2019-01-18T17:56:51.373Z,-0.50
2019-01-18T17:59:22.407Z,-0.50
2019-01-18T18:02:01.169Z,-0.50
2019-01-18T18:04:35.062Z,-0.60
2019-01-18T18:07:20.872Z,-0.60
2019-01-18T18:09:58.576Z,-0.70
2019-01-18T18:12:41.020Z,-0.70
2019-01-18T18:15:18.941Z,-0.70
2019-01-18T18:17:50.505Z,-0.80
2019-01-18T18:20:49.408Z,-0.80
2019-01-18T18:23:29.641Z,-0.80
2019-01-18T18:26:09.411Z,-0.90
2019-01-18T18:28:59.653Z,-0.90
2019-01-18T18:31:49.965Z,-1.00
2019-01-18T18:34:24.189Z,-1.00
2019-01-18T18:36:58.883Z,-1.00
2019-01-18T18:39:42.270Z,-1.00
2019-01-18T18:42:28.148Z,-1.00
2019-01-18T18:45:09.180Z,-0.90
2019-01-18T18:47:53.280Z,-0.80
2019-01-18T18:50:52.848Z,-0.80
2019-01-18T18:53:33.029Z,-0.70
2019-01-18T18:56:20.215Z,-0.60
2019-01-18T18:59:06.221Z,-0.50
2019-01-18T19:01:48.163Z,-0.40
2019-01-18T19:04:34.129Z,-0.50
2019-01-18T19:07:16.111Z,-0.50
2019-01-18T19:09:56.924Z,-0.60
2019-01-18T19:12:46.933Z,-0.70
2019-01-18T19:15:30.253Z,-0.80
2019-01-18T19:18:16.411Z,-0.80
2019-01-18T19:21:07.209Z,-0.80
2019-01-18T19:23:57.088Z,-0.80
2019-01-18T19:26:44.232Z,-0.90
2019-01-18T19:29:19.113Z,-0.90
2019-01-18T19:32:09.050Z,-0.90
2019-01-18T19:34:57.068Z,-1.00
2019-01-18T19:37:44.747Z,-1.00
2019-01-18T19:40:41.122Z,-1.10
2019-01-18T19:43:26.729Z,-1.20
2019-01-18T19:46:07.366Z,-1.30
2019-01-18T19:48:46.019Z,-1.30
2019-01-18T19:51:18.093Z,-1.30
2019-01-18T19:54:11.462Z,-1.40
2019-01-18T19:56:49.396Z,-1.40
2019-01-18T19:59:36.957Z,-1.40
2019-01-18T20:02:12.599Z,-1.40
2019-01-18T20:05:02.677Z,-1.40
2019-01-18T20:07:41.757Z,-1.40
2019-01-18T20:10:27.470Z,-1.50
2019-01-18T20:13:14.576Z,-1.50
2019-01-18T20:15:58.780Z,-1.50
2019-01-18T20:18:34.046Z,-1.60
2019-01-18T20:21:17.929Z,-1.70
2019-01-18T20:24:02.449Z,-1.70
2019-01-18T20:26:43.306Z,-1.80
2019-01-18T20:29:29.147Z,-1.80
2019-01-18T20:32:01.410Z,-1.80
2019-01-18T20:34:36.775Z,-1.80
2019-01-18T20:37:22.242Z,-1.80
2019-01-18T20:40:13.298Z,-1.80
2019-01-18T20:42:47.484Z,-1.80
2019-01-18T20:45:37.680Z,-1.90
2019-01-18T20:48:12.665Z,-1.90
2019-01-18T20:50:48.555Z,-2.00
2019-01-18T20:53:34.664Z,-2.00
2019-01-18T20:56:20.786Z,-2.10
2019-01-18T20:58:54.315Z,-2.10
2019-01-18T21:01:44.484Z,-2.00
2019-01-18T21:04:40.921Z,-2.00
2019-01-18T21:07:17.888Z,-2.10
2019-01-18T21:10:05.055Z,-2.10
2019-01-18T21:12:39.609Z,-2.10
2019-01-18T21:15:09.611Z,-2.10
2019-01-18T21:17:45.609Z,-2.10
2019-01-18T21:20:20.258Z,-2.10
2019-01-18T21:23:07.658Z,-2.10
2019-01-18T21:25:57.839Z,-2.20
2019-01-18T21:28:37.484Z,-2.20
2019-01-18T21:31:14.119Z,-2.30
2019-01-18T21:33:53.206Z,-2.40
2019-01-18T21:36:48.936Z,-2.40
2019-01-18T21:39:41.671Z,-2.50
2019-01-18T21:42:27.701Z,-2.60
2019-01-18T21:45:11.340Z,-2.70
2019-01-18T21:47:47.848Z,-2.80
2019-01-18T21:50:27.176Z,-2.90
2019-01-18T21:52:59.718Z,-3.00
2019-01-18T21:55:36.760Z,-3.10
2019-01-18T21:58:30.007Z,-3.10
2019-01-18T22:01:06.440Z,-3.20
2019-01-18T22:03:48.033Z,-3.30
2019-01-18T22:06:41.533Z,-3.30
2019-01-18T22:09:21.640Z,-3.40
2019-01-18T22:11:54.024Z,-3.40
2019-01-18T22:14:32.754Z,-3.50
2019-01-18T22:17:07.228Z,-3.40
2019-01-18T22:19:57.426Z,-3.40
2019-01-18T22:22:48.946Z,-3.50
2019-01-18T22:25:45.214Z,-3.40
2019-01-18T22:28:35.470Z,-3.50
2019-01-18T22:31:21.265Z,-3.50
2019-01-18T22:33:51.408Z,-3.50
2019-01-18T22:36:30.825Z,-3.60
2019-01-18T22:39:21.091Z,-3.60
2019-01-18T22:41:57.645Z,-3.50
2019-01-18T22:44:45.175Z,-3.50
2019-01-18T22:47:32.299Z,-3.50
2019-01-18T22:50:21.415Z,-3.60
2019-01-18T22:53:02.819Z,-3.60
2019-01-18T22:55:37.281Z,-3.70
2019-01-18T22:58:17.579Z,-3.70
2019-01-18T23:01:17.813Z,-3.80
2019-01-18T23:03:58.463Z,-3.80
2019-01-18T23:06:38.124Z,-3.80
2019-01-18T23:09:37.424Z,-3.90
2019-01-18T23:12:12.739Z,-3.90
2019-01-18T23:15:02.775Z,-4.00
2019-01-18T23:17:42.817Z,-4.00
2019-01-18T23:20:32.774Z,-4.10
2019-01-18T23:23:35.176Z,-4.10
2019-01-18T23:26:28.120Z,-4.10
2019-01-18T23:29:07.630Z,-4.10
2019-01-18T23:31:45.253Z,-4.10
2019-01-18T23:34:19.816Z,-4.20
2019-01-18T23:37:19.138Z,-4.20
2019-01-18T23:40:00.764Z,-4.30
2019-01-18T23:42:52.024Z,-4.30
2019-01-18T23:45:33.186Z,-4.30
2019-01-18T23:48:12.499Z,-4.30
2019-01-18T23:50:43.798Z,-4.40
2019-01-18T23:53:14.809Z,-4.50
2019-01-18T23:56:02.099Z,-4.50
2019-01-18T23:58:46.147Z,-4.50
